Pagrindinis puslapis
METAR-TAF:

METAR-TAF

Oro uostai :

Marianna Municipal Airport

Marianna, Florida, Jungtinės Amerikos Valstijos

platuma: 30-50-12N, ilguma: 085-11-01W, Aukštis: 34 m

Dabartinis oras

Ataskaita buvo paskelbta 1 valandą ir 28 minutes, ne 18:53 UTC
Vėjas 9 kt iš Pietų/Pietryčių
Temperatūra 12°C
Drėgmė 94%
Slėgis 1019 hPa
Matomumas: 8.0 km
Mažai debesys ne aukštis 7000 ft
Apsiniaukę ne aukštis 9000 ft
lietus, rūkana

METAR: KMAI 161853Z AUTO 16009KT 5SM -RA BR FEW070 OVC090 12/11 A3010 RMK AO2 SLP193 P0010 T01170111

Laikas: 14:21 (20:21 UTC)


TAF: trūkstamas

Orai ataskaitas ir orų prognozės (METAR, TAF).

turimą stotys yra geltonos ir raudonos taškus žemėlapyje.

Perkelti pele per norėdami pamatyti stoties vardą.

Tada spustelėkite, norėdami matyti oro stebėjimo ir prognozės.

Norėdami pakeisti žemėlapį: spustelėkite ant žalios mygtukų su juodo kryžiaus žemyn,; žalią mygtuką su brūkšneliu, jei norite nutolinti; arba žalių rodyklių gretimoms žemėlapius.


METAR-TAF: